Kaministiqua — CFN4612 — position and weather

sailwx.info

Track history (hours):
 
Tides and Currents Weather Stations Pressure Air Temp Water Temp Dewpoint Dewpoint Depression Visibility Wind Speed Wind Dir Waves Ship Positions

Kaministiqua

Last reported at 2014-Nov-27 15:33 UTC. Time now 2014-Nov-27 15:59 UTC.
Position N 45°20' W 073°55'.

Length 223 m; draft 7.9 m.

Type: Cargo ship. MMSI: 316009457.

Date/timePositionNaut miles runAvg speedWind from/ knotsBaromVisibWave heightAir tempDewpointWater temp
2014-Nov-27 15:33N 45°20' W 073°55'7 7.2
2014-Nov-27 14:33N 45°24' W 073°47'7 7.4
2014-Nov-27 13:33N 45°24' W 073°36'2 2.3
2014-Nov-27 12:33N 45°24' W 073°33'4 4.3
2014-Nov-27 11:33N 45°28' W 073°30'2 1.7
2014-Nov-27 10:33N 45°30' W 073°31'5 4.7
2014-Nov-27 09:33N 45°35' W 073°30'8 8.3
2014-Nov-27 08:33N 45°42' W 073°26'10 9.7
2014-Nov-27 07:33N 45°50' W 073°18'11 9.6
2014-Nov-27 06:23N 46°00' W 073°11'  
2014-Nov-25 01:30N 46°02' W 073°10'1212.9
2014-Nov-25 00:33N 45°51' W 073°16'1313.2
2014-Nov-24 23:33N 45°40' W 073°28'1010.2
2014-Nov-24 22:33N 45°30' W 073°31'1 1.5
2014-Nov-24 21:33N 45°29' W 073°31'5 4.5
2014-Nov-24 20:33N 45°24' W 073°32'2 1.9
2014-Nov-24 19:33N 45°24' W 073°35'4 4.3
2014-Nov-24 18:33N 45°25' W 073°41'5 4.6
2014-Nov-24 17:33N 45°24' W 073°47'7 7.1
2014-Nov-24 16:33N 45°19' W 073°55'1 1.0
2014-Nov-24 15:33N 45°18' W 073°56'3 3.0
2014-Nov-24 14:33N 45°16' W 073°58'7 6.6
2014-Nov-24 13:32N 45°14' W 074°07'1010.1
2014-Nov-24 12:33N 45°10' W 074°20'64 6.8
2014-Nov-24 03:10N 44°37' W 075°37'711.6
2014-Nov-24 02:33N 44°32' W 075°44'1111.0
2014-Nov-24 01:33N 44°23' W 075°52'1511.7
2014-Nov-24 00:15N 44°14' W 076°09'4 5.6
2014-Nov-23 23:34N 44°12' W 076°14'1111.3
2014-Nov-23 22:34N 44°04' W 076°25'1211.9
2014-Nov-23 21:34N 43°54' W 076°35'  
2014-Nov-19 23:33N 43°50' W 076°35'1616.0
2014-Nov-19 22:33N 44°05' W 076°25'10 9.9
2014-Nov-19 21:34N 44°12' W 076°16'4 4.5
2014-Nov-19 20:34N 44°13' W 076°10'11 8.2
2014-Nov-19 19:13N 44°19' W 075°57'6 9.0
2014-Nov-19 18:33N 44°24' W 075°52'1110.7
2014-Nov-19 17:33N 44°33' W 075°44'60 2.0
2014-Nov-18 11:26N 45°04' W 074°31'5 6.1
2014-Nov-18 10:33N 45°08' W 074°25'9 8.9
2014-Nov-18 09:33N 45°13' W 074°16'9 8.6
2014-Nov-18 08:29N 45°13' W 074°02'7 7.4
2014-Nov-18 07:33N 45°18' W 073°56'1 1.0
2014-Nov-18 06:33N 45°19' W 073°55'0 0.5
2014-Nov-18 05:33N 45°19' W 073°55'6 5.5
2014-Nov-18 04:33N 45°23' W 073°49'7 6.9
2014-Nov-18 03:33N 45°24' W 073°39'4 3.6
2014-Nov-18 02:33N 45°24' W 073°34'3 2.9
2014-Nov-18 01:33N 45°26' W 073°30'4 4.0
2014-Nov-18 00:33N 45°30' W 073°31'0 0.0
2014-Nov-17 23:33N 45°30' W 073°31'1 0.9
2014-Nov-17 22:33N 45°31' W 073°31'4 4.3
2014-Nov-17 21:33N 45°35' W 073°30'8 8.4
2014-Nov-17 20:33N 45°43' W 073°26'10 9.7
2014-Nov-17 19:33N 45°50' W 073°17'11 9.6
2014-Nov-17 18:26N 46°00' W 073°11'11 8.8
2014-Nov-17 17:11N 46°07' W 072°58'6 9.9
2014-Nov-17 16:34N 46°12' W 072°53'1010.5
2014-Nov-17 15:34N 46°16' W 072°39'  
Track history (hours):
 
Tides and Currents Weather Stations Pressure Air Temp Water Temp Dewpoint Dewpoint Depression Visibility Wind Speed Wind Dir Waves Ship Positions

Kaministiqua

Last reported at 2014-Nov-27 15:33 UTC. Time now 2014-Nov-27 15:59 UTC.
Position N 45°20' W 073°55'.

Length 223 m; draft 7.9 m.

Type: Cargo ship. MMSI: 316009457.

Date/timePositionNaut miles runAvg speedWind from/ knotsBaromVisibWave heightAir tempDewpointWater temp
2014-Nov-27 15:33N 45°20' W 073°55'7 7.2
2014-Nov-27 14:33N 45°24' W 073°47'7 7.4
2014-Nov-27 13:33N 45°24' W 073°36'2 2.3
2014-Nov-27 12:33N 45°24' W 073°33'4 4.3
2014-Nov-27 11:33N 45°28' W 073°30'2 1.7
2014-Nov-27 10:33N 45°30' W 073°31'5 4.7
2014-Nov-27 09:33N 45°35' W 073°30'8 8.3
2014-Nov-27 08:33N 45°42' W 073°26'10 9.7
2014-Nov-27 07:33N 45°50' W 073°18'11 9.6
2014-Nov-27 06:23N 46°00' W 073°11'  
2014-Nov-25 01:30N 46°02' W 073°10'1212.9
2014-Nov-25 00:33N 45°51' W 073°16'1313.2
2014-Nov-24 23:33N 45°40' W 073°28'1010.2
2014-Nov-24 22:33N 45°30' W 073°31'1 1.5
2014-Nov-24 21:33N 45°29' W 073°31'5 4.5
2014-Nov-24 20:33N 45°24' W 073°32'2 1.9
2014-Nov-24 19:33N 45°24' W 073°35'4 4.3
2014-Nov-24 18:33N 45°25' W 073°41'5 4.6
2014-Nov-24 17:33N 45°24' W 073°47'7 7.1
2014-Nov-24 16:33N 45°19' W 073°55'1 1.0
2014-Nov-24 15:33N 45°18' W 073°56'3 3.0
2014-Nov-24 14:33N 45°16' W 073°58'7 6.6
2014-Nov-24 13:32N 45°14' W 074°07'1010.1
2014-Nov-24 12:33N 45°10' W 074°20'64 6.8
2014-Nov-24 03:10N 44°37' W 075°37'711.6
2014-Nov-24 02:33N 44°32' W 075°44'1111.0
2014-Nov-24 01:33N 44°23' W 075°52'1511.7
2014-Nov-24 00:15N 44°14' W 076°09'4 5.6
2014-Nov-23 23:34N 44°12' W 076°14'1111.3
2014-Nov-23 22:34N 44°04' W 076°25'1211.9
2014-Nov-23 21:34N 43°54' W 076°35'  
2014-Nov-19 23:33N 43°50' W 076°35'1616.0
2014-Nov-19 22:33N 44°05' W 076°25'10 9.9
2014-Nov-19 21:34N 44°12' W 076°16'4 4.5
2014-Nov-19 20:34N 44°13' W 076°10'11 8.2
2014-Nov-19 19:13N 44°19' W 075°57'6 9.0
2014-Nov-19 18:33N 44°24' W 075°52'1110.7
2014-Nov-19 17:33N 44°33' W 075°44'60 2.0
2014-Nov-18 11:26N 45°04' W 074°31'5 6.1
2014-Nov-18 10:33N 45°08' W 074°25'9 8.9
2014-Nov-18 09:33N 45°13' W 074°16'9 8.6
2014-Nov-18 08:29N 45°13' W 074°02'7 7.4
2014-Nov-18 07:33N 45°18' W 073°56'1 1.0
2014-Nov-18 06:33N 45°19' W 073°55'0 0.5
2014-Nov-18 05:33N 45°19' W 073°55'6 5.5
2014-Nov-18 04:33N 45°23' W 073°49'7 6.9
2014-Nov-18 03:33N 45°24' W 073°39'4 3.6
2014-Nov-18 02:33N 45°24' W 073°34'3 2.9
2014-Nov-18 01:33N 45°26' W 073°30'4 4.0
2014-Nov-18 00:33N 45°30' W 073°31'0 0.0
2014-Nov-17 23:33N 45°30' W 073°31'1 0.9
2014-Nov-17 22:33N 45°31' W 073°31'4 4.3
2014-Nov-17 21:33N 45°35' W 073°30'8 8.4
2014-Nov-17 20:33N 45°43' W 073°26'10 9.7
2014-Nov-17 19:33N 45°50' W 073°17'11 9.6
2014-Nov-17 18:26N 46°00' W 073°11'11 8.8
2014-Nov-17 17:11N 46°07' W 072°58'6 9.9
2014-Nov-17 16:34N 46°12' W 072°53'1010.5
2014-Nov-17 15:34N 46°16' W 072°39'  

Dump ship's entire track history